createdAt,value
2018-04-22T00:02:14.729Z,28.27
2018-04-22T00:04:42.839Z,27.60
2018-04-22T00:07:10.968Z,29.57
2018-04-22T00:09:39.089Z,29.07
2018-04-22T00:12:07.324Z,30.70
2018-04-22T00:14:35.436Z,28.73
2018-04-22T00:17:03.555Z,29.10
2018-04-22T00:19:31.654Z,27.90
2018-04-22T00:21:59.773Z,29.17
2018-04-22T00:24:27.833Z,27.50
2018-04-22T00:26:55.939Z,29.10
2018-04-22T00:29:27.729Z,28.40
2018-04-22T00:31:55.933Z,27.57
2018-04-22T00:34:24.018Z,30.33
2018-04-22T00:36:52.170Z,28.60
2018-04-22T00:39:20.278Z,26.93
2018-04-22T00:41:48.487Z,28.20
2018-04-22T00:44:16.583Z,30.33
2018-04-22T00:46:44.673Z,28.40
2018-04-22T00:49:12.801Z,27.40
2018-04-22T00:51:40.928Z,28.40
2018-04-22T00:54:15.197Z,30.57
2018-04-22T00:56:43.277Z,30.20
2018-04-22T00:59:11.349Z,32.93
2018-04-22T01:01:39.429Z,29.50
2018-04-22T01:04:08.869Z,28.90
2018-04-22T01:06:36.955Z,30.57
2018-04-22T01:09:05.073Z,28.47
2018-04-22T01:11:33.182Z,30.83
2018-04-22T01:14:01.274Z,30.87
2018-04-22T01:16:29.345Z,28.73
2018-04-22T01:18:57.412Z,29.33
2018-04-22T01:21:25.532Z,31.70
2018-04-22T01:23:53.657Z,31.73
2018-04-22T01:26:21.741Z,30.37
2018-04-22T01:28:49.830Z,29.00
2018-04-22T01:31:18.030Z,31.60
2018-04-22T01:33:48.190Z,31.47
2018-04-22T01:36:16.267Z,30.13
2018-04-22T01:38:44.369Z,28.50
2018-04-22T01:41:12.516Z,29.17
2018-04-22T01:43:40.597Z,31.23
2018-04-22T01:46:08.747Z,31.00
2018-04-22T01:48:36.864Z,28.80
2018-04-22T01:51:04.952Z,30.70
2018-04-22T01:53:33.102Z,30.87
2018-04-22T01:56:01.215Z,31.60
2018-04-22T01:58:29.284Z,28.77
2018-04-22T02:00:57.368Z,28.10
2018-04-22T02:03:25.478Z,28.80
2018-04-22T02:05:53.612Z,31.40
2018-04-22T02:08:21.697Z,29.77
2018-04-22T02:10:49.865Z,32.07
2018-04-22T02:13:17.964Z,30.90
2018-04-22T02:15:48.382Z,29.37
2018-04-22T02:18:16.532Z,31.20
2018-04-22T02:20:44.645Z,30.60
2018-04-22T02:23:19.085Z,32.40
2018-04-22T02:25:47.249Z,30.50
2018-04-22T02:28:15.349Z,31.83
2018-04-22T02:30:43.441Z,31.33
2018-04-22T02:33:11.553Z,34.30
2018-04-22T02:35:39.786Z,32.10
2018-04-22T02:38:07.938Z,32.60
2018-04-22T02:40:36.032Z,29.50
2018-04-22T02:43:04.118Z,29.47
2018-04-22T02:45:32.234Z,31.90
2018-04-22T02:48:00.386Z,32.70
2018-04-22T02:50:28.477Z,31.90
2018-04-22T02:52:56.550Z,31.27
2018-04-22T02:55:24.642Z,32.13
2018-04-22T02:57:52.778Z,31.43
2018-04-22T03:00:20.918Z,33.23
2018-04-22T03:02:49.022Z,31.90
2018-04-22T03:05:17.162Z,31.43
2018-04-22T03:07:45.305Z,30.13
2018-04-22T03:10:17.131Z,33.07
2018-04-22T03:12:45.226Z,31.60
2018-04-22T03:15:13.333Z,31.63
2018-04-22T03:17:41.438Z,30.73
2018-04-22T03:20:09.765Z,31.00
2018-04-22T03:22:37.853Z,32.63
2018-04-22T03:25:06.011Z,33.00
2018-04-22T03:27:34.089Z,31.53
2018-04-22T03:30:02.309Z,30.67
2018-04-22T03:32:30.397Z,30.43
2018-04-22T03:34:59.433Z,34.80
2018-04-22T03:37:27.517Z,35.37
2018-04-22T03:39:55.634Z,32.60
2018-04-22T03:42:23.755Z,33.87
2018-04-22T03:44:51.871Z,35.67
2018-04-22T03:47:19.958Z,32.20
2018-04-22T03:49:48.035Z,36.87
2018-04-22T03:52:16.108Z,37.60
2018-04-22T03:54:44.189Z,35.23
2018-04-22T03:57:12.336Z,36.13
2018-04-22T03:59:40.445Z,37.57
2018-04-22T04:02:08.569Z,36.67
2018-04-22T04:04:36.681Z,35.63
2018-04-22T04:07:04.754Z,37.73
2018-04-22T04:09:32.825Z,39.37
2018-04-22T04:12:00.968Z,34.40
2018-04-22T04:14:29.081Z,37.03
2018-04-22T04:16:57.190Z,35.83
2018-04-22T04:19:31.430Z,38.90
2018-04-22T04:22:05.782Z,38.60
2018-04-22T04:24:39.930Z,38.33
2018-04-22T04:27:14.207Z,37.80
2018-04-22T04:29:42.302Z,36.27
2018-04-22T04:32:10.422Z,40.07
2018-04-22T04:34:38.557Z,38.60
2018-04-22T04:37:06.624Z,40.60
2018-04-22T04:39:34.743Z,42.47
2018-04-22T04:42:02.841Z,41.37
2018-04-22T04:44:30.932Z,40.93
2018-04-22T04:46:59.018Z,41.33
2018-04-22T04:49:27.095Z,42.37
2018-04-22T04:51:55.227Z,39.83
2018-04-22T04:54:23.374Z,40.90
2018-04-22T04:56:51.489Z,41.83
2018-04-22T04:59:19.577Z,39.47
2018-04-22T05:01:47.693Z,41.20
2018-04-22T05:04:15.760Z,40.20
2018-04-22T05:06:43.869Z,40.63
2018-04-22T05:09:11.981Z,40.10
2018-04-22T05:11:40.053Z,41.13
2018-04-22T05:14:08.167Z,42.00
2018-04-22T05:16:36.273Z,41.60
2018-04-22T05:19:04.388Z,40.00
2018-04-22T05:21:39.097Z,39.73
2018-04-22T05:24:07.169Z,40.40
2018-04-22T05:26:35.350Z,40.20
2018-04-22T05:29:03.432Z,40.67
2018-04-22T05:31:31.509Z,41.20
2018-04-22T05:33:59.590Z,39.00
2018-04-22T05:36:27.727Z,39.60
2018-04-22T05:38:55.789Z,39.10
2018-04-22T05:41:27.726Z,38.90
2018-04-22T05:43:55.805Z,39.60
2018-04-22T05:46:23.924Z,40.63
2018-04-22T05:48:52.041Z,37.47
2018-04-22T05:51:20.137Z,39.00
2018-04-22T05:53:48.398Z,38.90
2018-04-22T05:56:16.519Z,38.97
2018-04-22T05:58:44.601Z,36.53
2018-04-22T06:01:12.677Z,40.10
2018-04-22T06:03:40.757Z,37.87
2018-04-22T06:06:08.850Z,36.33
2018-04-22T06:08:37.004Z,35.80
2018-04-22T06:11:05.116Z,36.07
2018-04-22T06:13:33.200Z,36.27
2018-04-22T06:16:01.337Z,37.30
2018-04-22T06:18:31.665Z,37.30
2018-04-22T06:20:59.781Z,37.50
2018-04-22T06:23:27.911Z,36.07
2018-04-22T06:25:56.014Z,35.50
2018-04-22T06:28:27.747Z,34.80
2018-04-22T06:30:59.421Z,36.67
2018-04-22T06:33:27.494Z,33.50
2018-04-22T06:35:55.601Z,33.67
2018-04-22T06:38:23.717Z,35.73
2018-04-22T06:40:54.189Z,34.40
2018-04-22T06:43:22.486Z,34.53
2018-04-22T06:45:51.679Z,35.27
2018-04-22T06:48:19.764Z,32.50
2018-04-22T06:50:47.847Z,33.03
2018-04-22T06:53:15.989Z,31.63
2018-04-22T06:55:44.029Z,30.67
2018-04-22T06:58:12.137Z,31.53
2018-04-22T07:00:41.534Z,33.37
2018-04-22T07:03:09.622Z,30.10
2018-04-22T07:05:37.731Z,31.50
2018-04-22T07:08:05.818Z,31.20
2018-04-22T07:10:33.949Z,29.63
2018-04-22T07:13:02.039Z,29.17
2018-04-22T07:15:30.165Z,29.03
2018-04-22T07:17:58.265Z,31.17
2018-04-22T07:20:26.351Z,29.63
2018-04-22T07:22:55.253Z,28.30
2018-04-22T07:25:23.339Z,31.03
2018-04-22T07:27:52.450Z,31.37
2018-04-22T07:30:20.533Z,27.93
2018-04-22T07:32:48.701Z,29.73
2018-04-22T07:35:16.982Z,27.63
2018-04-22T07:37:45.274Z,27.27
2018-04-22T07:40:13.335Z,28.20
2018-04-22T07:42:41.561Z,27.27
2018-04-22T07:45:09.797Z,29.67
2018-04-22T07:47:39.001Z,28.30
2018-04-22T07:50:07.129Z,27.87
2018-04-22T07:52:35.262Z,28.80
2018-04-22T07:55:03.342Z,29.87
2018-04-22T07:57:31.497Z,28.70
2018-04-22T08:00:00.816Z,27.80
2018-04-22T08:02:30.005Z,27.90
2018-04-22T08:05:01.913Z,27.83
2018-04-22T08:07:35.794Z,26.67
2018-04-22T08:10:04.069Z,27.47
2018-04-22T08:12:35.853Z,26.20
2018-04-22T08:15:04.013Z,27.30
2018-04-22T08:17:36.287Z,29.13
2018-04-22T08:20:04.565Z,29.43
2018-04-22T08:22:34.673Z,27.17
2018-04-22T08:25:03.073Z,27.80
2018-04-22T08:27:31.265Z,28.53
2018-04-22T08:29:59.515Z,26.57
2018-04-22T08:32:27.699Z,26.10
2018-04-22T08:34:55.849Z,27.00
2018-04-22T08:37:23.937Z,26.03
2018-04-22T08:39:52.018Z,26.07
2018-04-22T08:42:20.159Z,27.43
2018-04-22T08:44:48.242Z,26.77
2018-04-22T08:47:16.361Z,25.67
2018-04-22T08:49:44.441Z,25.87
2018-04-22T08:52:12.520Z,24.73
2018-04-22T08:54:40.585Z,25.10
2018-04-22T08:57:08.681Z,23.03
2018-04-22T08:59:37.233Z,23.93
2018-04-22T09:02:08.714Z,23.03
2018-04-22T09:04:36.791Z,25.10
2018-04-22T09:07:05.944Z,25.57
2018-04-22T09:09:35.113Z,27.83
2018-04-22T09:12:06.806Z,29.00
2018-04-22T09:14:36.281Z,27.20
2018-04-22T09:17:04.472Z,24.10
2018-04-22T09:19:32.551Z,24.00
2018-04-22T09:22:00.647Z,25.87
2018-04-22T09:24:28.828Z,23.30
2018-04-22T09:26:56.899Z,23.57
2018-04-22T09:29:24.989Z,26.60
2018-04-22T09:31:53.126Z,24.67
2018-04-22T09:34:21.190Z,22.07
2018-04-22T09:36:49.261Z,25.33
2018-04-22T09:39:17.343Z,24.33
2018-04-22T09:41:45.429Z,20.60
2018-04-22T09:44:14.534Z,22.10
2018-04-22T09:46:42.614Z,20.10
2018-04-22T09:49:10.745Z,16.50
2018-04-22T09:51:41.990Z,16.20
2018-04-22T09:54:10.093Z,14.30
2018-04-22T09:56:38.212Z,15.97
2018-04-22T09:59:06.322Z,13.90
2018-04-22T10:01:36.252Z,12.70
2018-04-22T10:04:10.278Z,13.63
2018-04-22T10:06:38.418Z,13.33
2018-04-22T10:09:06.494Z,16.30
2018-04-22T10:11:37.849Z,14.20
2018-04-22T10:14:05.913Z,14.50
2018-04-22T10:16:34.044Z,16.30
2018-04-22T10:19:02.144Z,16.00
2018-04-22T10:21:30.218Z,15.77
2018-04-22T10:23:58.318Z,13.97
2018-04-22T10:26:26.377Z,16.33
2018-04-22T10:28:54.648Z,16.20
2018-04-22T10:31:22.729Z,15.23
2018-04-22T10:33:51.216Z,14.17
2018-04-22T10:36:21.977Z,14.03
2018-04-22T10:38:52.060Z,14.53
2018-04-22T10:41:20.353Z,11.83
2018-04-22T10:43:48.680Z,14.83
2018-04-22T10:46:17.264Z,17.10
2018-04-22T10:48:45.776Z,14.37
2018-04-22T10:51:15.022Z,16.20
2018-04-22T10:53:58.312Z,13.60
2018-04-22T10:56:26.605Z,13.53
2018-04-22T10:58:58.557Z,12.37
2018-04-22T11:01:27.771Z,12.10
2018-04-22T11:03:58.291Z,12.17
2018-04-22T11:06:30.444Z,10.93
2018-04-22T11:09:02.281Z,9.13
2018-04-22T11:11:30.356Z,10.40
2018-04-22T11:13:58.442Z,8.30
2018-04-22T11:16:26.702Z,8.27
2018-04-22T11:18:55.021Z,23.97
2018-04-22T11:21:23.129Z,11.20
2018-04-22T11:23:52.445Z,10.57
2018-04-22T11:26:20.628Z,8.87
2018-04-22T11:28:51.404Z,10.07
2018-04-22T11:31:19.643Z,9.03
2018-04-22T11:33:47.841Z,9.90
2018-04-22T11:36:16.450Z,8.50
2018-04-22T11:38:44.625Z,7.93
2018-04-22T11:41:12.782Z,7.67
2018-04-22T11:43:40.841Z,8.53
2018-04-22T11:46:08.944Z,12.47
2018-04-22T11:48:37.034Z,9.07
2018-04-22T11:51:06.158Z,13.17
2018-04-22T11:53:34.267Z,10.43
2018-04-22T11:56:02.358Z,11.47
2018-04-22T11:58:30.574Z,13.27
2018-04-22T12:01:00.063Z,13.20
2018-04-22T12:03:28.226Z,11.67
2018-04-22T12:05:56.370Z,15.70
2018-04-22T12:08:24.481Z,11.57
2018-04-22T12:10:52.619Z,17.37
2018-04-22T12:13:26.898Z,12.57
2018-04-22T12:15:55.016Z,13.40
2018-04-22T12:18:23.100Z,10.57
2018-04-22T12:20:51.246Z,10.93
2018-04-22T12:23:19.358Z,13.00
2018-04-22T12:25:47.521Z,12.20
2018-04-22T12:28:15.658Z,9.90
2018-04-22T12:30:43.793Z,11.87
2018-04-22T12:33:13.934Z,13.83
2018-04-22T12:35:43.111Z,13.53
2018-04-22T12:38:11.198Z,11.63
2018-04-22T12:40:39.354Z,12.60
2018-04-22T12:43:07.498Z,12.13
2018-04-22T12:45:36.883Z,12.23
2018-04-22T12:48:05.046Z,11.13
2018-04-22T12:50:33.188Z,12.77
2018-04-22T12:53:02.210Z,10.83
2018-04-22T12:55:30.430Z,12.20
2018-04-22T12:57:58.661Z,11.57
2018-04-22T13:00:27.833Z,9.80
2018-04-22T13:02:56.066Z,9.30
2018-04-22T13:05:25.357Z,11.10
2018-04-22T13:07:53.738Z,12.17
2018-04-22T13:10:21.871Z,9.30
2018-04-22T13:12:50.047Z,10.37
2018-04-22T13:15:18.268Z,8.20
2018-04-22T13:17:46.412Z,9.00
2018-04-22T13:20:15.154Z,7.17
2018-04-22T13:22:43.317Z,7.80
2018-04-22T13:25:14.223Z,8.43
2018-04-22T13:27:42.549Z,6.83
2018-04-22T13:30:11.141Z,7.53
2018-04-22T13:32:40.357Z,8.40
2018-04-22T13:35:12.836Z,9.20
2018-04-22T13:37:42.045Z,11.20
2018-04-22T13:40:11.317Z,7.77
2018-04-22T13:42:39.695Z,9.60
2018-04-22T13:45:09.937Z,7.30
2018-04-22T13:47:38.369Z,8.00
2018-04-22T13:50:12.274Z,8.07
2018-04-22T13:52:41.559Z,9.77
2018-04-22T13:55:13.634Z,10.23
2018-04-22T14:00:35.371Z,10.20
2018-04-22T14:03:04.771Z,10.43
2018-04-22T14:08:29.101Z,8.07
2018-04-22T14:11:00.854Z,10.83
2018-04-22T14:13:36.145Z,8.63
2018-04-22T14:16:15.743Z,8.23
2018-04-22T14:18:46.670Z,9.77
2018-04-22T14:21:24.965Z,7.47
2018-04-22T14:24:00.261Z,8.67
2018-04-22T14:29:20.560Z,7.83
2018-04-22T14:31:56.129Z,6.97
2018-04-22T14:34:32.546Z,8.87
2018-04-22T14:37:04.154Z,7.63
2018-04-22T14:39:34.278Z,10.77
2018-04-22T14:42:02.375Z,8.87
2018-04-22T14:44:36.637Z,10.13
2018-04-22T14:47:04.726Z,7.40
2018-04-22T14:49:35.042Z,10.10
2018-04-22T14:52:03.322Z,9.77
2018-04-22T14:54:40.105Z,9.87
2018-04-22T14:57:12.774Z,9.97
2018-04-22T14:59:44.118Z,9.13
2018-04-22T15:02:18.767Z,9.50
2018-04-22T15:05:04.002Z,9.73
2018-04-22T15:07:32.089Z,9.60
2018-04-22T15:10:00.320Z,8.90
2018-04-22T15:12:31.859Z,10.60
2018-04-22T15:14:59.938Z,10.60
2018-04-22T15:17:29.421Z,10.13
2018-04-22T15:19:57.761Z,12.70
2018-04-22T15:22:25.994Z,10.13
2018-04-22T15:24:54.144Z,16.73
2018-04-22T15:27:22.216Z,15.70
2018-04-22T15:29:50.367Z,11.43
2018-04-22T15:32:23.037Z,10.80
2018-04-22T15:34:51.459Z,11.27
2018-04-22T15:37:19.553Z,9.17
2018-04-22T15:39:47.734Z,8.50
2018-04-22T15:42:16.826Z,9.53
2018-04-22T15:44:44.932Z,11.07
2018-04-22T15:47:12.999Z,9.13
2018-04-22T15:49:42.309Z,9.20
2018-04-22T15:52:10.394Z,7.83
2018-04-22T15:54:39.549Z,7.83
2018-04-22T15:57:07.649Z,8.57
2018-04-22T15:59:35.765Z,8.70
2018-04-22T16:02:07.167Z,6.90
2018-04-22T16:04:35.253Z,7.70
2018-04-22T16:07:05.349Z,6.17
2018-04-22T16:09:33.437Z,7.33
2018-04-22T16:12:01.525Z,7.43
2018-04-22T16:14:29.763Z,7.57
2018-04-22T16:17:04.482Z,8.10
2018-04-22T16:19:32.559Z,6.80
2018-04-22T16:22:00.660Z,7.63
2018-04-22T16:24:36.334Z,8.67
2018-04-22T16:27:08.105Z,10.70
2018-04-22T16:29:36.177Z,9.27
2018-04-22T16:32:04.376Z,6.80
2018-04-22T16:37:20.534Z,8.10
2018-04-22T16:39:48.709Z,7.23
2018-04-22T16:42:16.801Z,7.47
2018-04-22T16:44:44.909Z,7.10
2018-04-22T16:47:15.232Z,10.30
2018-04-22T16:49:46.450Z,9.47
2018-04-22T16:52:14.529Z,7.07
2018-04-22T16:54:43.738Z,8.20
2018-04-22T16:57:11.813Z,8.03
2018-04-22T16:59:45.829Z,7.03
2018-04-22T17:02:13.947Z,6.80
2018-04-22T17:04:47.012Z,8.37
2018-04-22T17:07:15.068Z,6.53
2018-04-22T17:09:43.261Z,7.30
2018-04-22T17:12:11.361Z,8.23
2018-04-22T17:14:55.132Z,7.70
2018-04-22T17:17:23.315Z,10.43
2018-04-22T17:19:51.443Z,7.27
2018-04-22T17:22:19.513Z,9.17
2018-04-22T17:24:47.606Z,10.43
2018-04-22T17:27:15.706Z,9.77
2018-04-22T17:29:43.826Z,14.97
2018-04-22T17:32:11.881Z,27.20
2018-04-22T17:34:39.938Z,7.60
2018-04-22T17:37:08.024Z,9.10
2018-04-22T17:39:36.238Z,7.67
2018-04-22T17:42:04.397Z,7.50
2018-04-22T17:44:32.514Z,7.53
2018-04-22T17:47:01.581Z,6.53
2018-04-22T17:49:29.698Z,6.13
2018-04-22T17:51:57.789Z,6.20
2018-04-22T17:54:25.898Z,6.07
2018-04-22T17:56:53.993Z,6.17
2018-04-22T17:59:22.090Z,6.67
2018-04-22T18:01:50.282Z,7.30
2018-04-22T18:04:25.299Z,6.00
2018-04-22T18:06:53.385Z,8.17
2018-04-22T18:09:21.488Z,6.13
2018-04-22T18:11:49.586Z,8.30
2018-04-22T18:16:50.401Z,6.40
2018-04-22T18:19:18.526Z,8.00
2018-04-22T18:21:46.640Z,6.10
2018-04-22T18:24:14.724Z,6.13
2018-04-22T18:26:42.833Z,5.97
2018-04-22T18:29:10.905Z,5.83
2018-04-22T18:31:39.145Z,7.50
2018-04-22T18:34:07.221Z,7.90
2018-04-22T18:36:35.403Z,7.23
2018-04-22T18:39:04.552Z,8.67
2018-04-22T18:41:34.695Z,6.50
2018-04-22T18:44:04.821Z,9.20
2018-04-22T18:49:20.794Z,7.10
2018-04-22T18:51:50.951Z,6.50
2018-04-22T18:54:19.063Z,6.00
2018-04-22T18:56:47.172Z,6.50
2018-04-22T18:59:15.425Z,6.80
2018-04-22T19:01:43.563Z,6.17
2018-04-22T19:04:11.671Z,5.30
2018-04-22T19:06:39.758Z,7.43
2018-04-22T19:09:07.877Z,6.70
2018-04-22T19:11:35.998Z,7.30
2018-04-22T19:14:04.185Z,7.00
2018-04-22T19:16:35.629Z,7.17
2018-04-22T19:19:07.042Z,8.07
2018-04-22T19:21:35.193Z,7.43
2018-04-22T19:24:06.431Z,7.37
2018-04-22T19:26:34.923Z,9.57
2018-04-22T19:29:03.607Z,9.87
2018-04-22T19:31:32.778Z,8.20
2018-04-22T19:34:04.445Z,7.50
2018-04-22T19:36:36.209Z,10.60
2018-04-22T19:39:04.598Z,8.83
2018-04-22T19:41:33.822Z,8.03
2018-04-22T19:44:02.067Z,7.70
2018-04-22T19:52:03.647Z,6.53
2018-04-22T19:54:33.029Z,7.17
2018-04-22T19:57:01.272Z,8.00
2018-04-22T19:59:29.326Z,7.00
2018-04-22T20:01:58.695Z,7.17
2018-04-22T20:04:30.538Z,8.37
2018-04-22T20:07:02.302Z,7.57
2018-04-22T20:09:30.421Z,8.60
2018-04-22T20:12:00.721Z,8.57
2018-04-22T20:14:32.198Z,5.97
2018-04-22T20:19:48.209Z,8.00
2018-04-22T20:22:16.411Z,6.40
2018-04-22T20:24:44.535Z,6.73
2018-04-22T20:27:12.622Z,6.20
2018-04-22T20:29:40.721Z,6.53
2018-04-22T20:32:08.817Z,6.23
2018-04-22T20:34:36.893Z,5.80
2018-04-22T20:37:08.854Z,5.90
2018-04-22T20:39:36.977Z,8.27
2018-04-22T20:42:05.527Z,8.37
2018-04-22T20:44:33.632Z,6.30
2018-04-22T20:47:01.789Z,6.70
2018-04-22T20:49:29.921Z,7.10
2018-04-22T20:51:58.059Z,6.40
2018-04-22T20:54:26.243Z,6.03
2018-04-22T20:56:54.370Z,6.40
2018-04-22T20:59:22.485Z,6.80
2018-04-22T21:01:50.628Z,6.40
2018-04-22T21:04:18.752Z,5.50
2018-04-22T21:06:46.879Z,6.17
2018-04-22T21:09:15.006Z,6.53
2018-04-22T21:11:43.138Z,5.87
2018-04-22T21:14:11.218Z,6.90
2018-04-22T21:16:40.301Z,7.83
2018-04-22T21:19:08.422Z,8.43
2018-04-22T21:21:36.618Z,8.93
2018-04-22T21:24:04.754Z,6.60
2018-04-22T21:26:32.972Z,6.87
2018-04-22T21:29:01.185Z,7.13
2018-04-22T21:31:29.294Z,10.73
2018-04-22T21:33:57.512Z,8.77
2018-04-22T21:36:25.663Z,9.50
2018-04-22T21:38:53.777Z,6.80
2018-04-22T21:41:22.918Z,7.47
2018-04-22T21:43:53.269Z,5.50
2018-04-22T21:46:21.361Z,7.40
2018-04-22T21:48:49.465Z,5.47
2018-04-22T21:51:17.618Z,7.50
2018-04-22T21:53:45.730Z,9.03
2018-04-22T21:56:13.836Z,7.77
2018-04-22T21:58:41.990Z,7.30
2018-04-22T22:01:10.068Z,7.83
2018-04-22T22:03:39.170Z,7.53
2018-04-22T22:06:07.339Z,8.37
2018-04-22T22:08:35.421Z,6.13
2018-04-22T22:11:06.961Z,7.23
2018-04-22T22:13:35.134Z,8.17
2018-04-22T22:16:03.335Z,7.63
2018-04-22T22:18:31.568Z,7.17
2018-04-22T22:20:59.705Z,7.97
2018-04-22T22:23:27.825Z,11.30
2018-04-22T22:25:55.901Z,7.30
2018-04-22T22:28:24.022Z,7.83
2018-04-22T22:30:52.154Z,6.60
2018-04-22T22:33:20.269Z,8.47
2018-04-22T22:35:48.346Z,6.77
2018-04-22T22:38:16.492Z,7.73
2018-04-22T22:40:44.656Z,9.53
2018-04-22T22:43:12.825Z,7.90
2018-04-22T22:45:40.937Z,6.87
2018-04-22T22:48:12.787Z,7.87
2018-04-22T22:50:40.873Z,7.97
2018-04-22T22:53:08.984Z,6.53
2018-04-22T22:55:37.062Z,6.87
2018-04-22T22:58:05.250Z,8.20
2018-04-22T23:00:33.394Z,7.20
2018-04-22T23:03:01.522Z,7.20
2018-04-22T23:05:29.684Z,7.10
2018-04-22T23:07:57.769Z,8.07
2018-04-22T23:10:25.894Z,9.27
2018-04-22T23:12:54.006Z,6.60
2018-04-22T23:15:22.090Z,8.27
2018-04-22T23:17:50.164Z,7.23
2018-04-22T23:20:18.449Z,9.33
2018-04-22T23:22:46.562Z,8.07
2018-04-22T23:25:16.888Z,8.77
2018-04-22T23:27:45.030Z,7.03
2018-04-22T23:30:13.109Z,8.97
2018-04-22T23:32:41.189Z,8.27
2018-04-22T23:35:09.309Z,6.90
2018-04-22T23:37:37.507Z,8.57
2018-04-22T23:40:05.619Z,8.47
2018-04-22T23:42:33.728Z,8.37
2018-04-22T23:45:01.860Z,7.00
2018-04-22T23:47:29.951Z,7.80
2018-04-22T23:50:00.035Z,7.73
2018-04-22T23:52:28.129Z,5.97
2018-04-22T23:54:59.558Z,8.90
2018-04-22T23:57:27.631Z,8.37
2018-04-22T23:59:55.798Z,8.33
